sensor_id;sensor_type;location;lat;lon;timestamp;temperature;humidity
18884;DHT22;9574;47.282;9.640;2023-06-04T00:01:04;17.40;99.90
18884;DHT22;9574;47.282;9.640;2023-06-04T00:03:31;17.50;99.90
18884;DHT22;9574;47.282;9.640;2023-06-04T00:05:58;17.50;99.90
18884;DHT22;9574;47.282;9.640;2023-06-04T00:08:26;17.30;99.90
18884;DHT22;9574;47.282;9.640;2023-06-04T00:10:53;17.30;99.90
18884;DHT22;9574;47.282;9.640;2023-06-04T00:13:20;17.20;99.90
18884;DHT22;9574;47.282;9.640;2023-06-04T00:15:47;17.20;99.90
18884;DHT22;9574;47.282;9.640;2023-06-04T00:18:14;17.10;99.90
18884;DHT22;9574;47.282;9.640;2023-06-04T00:20:41;17.10;99.90
18884;DHT22;9574;47.282;9.640;2023-06-04T00:23:08;17.00;99.90
18884;DHT22;9574;47.282;9.640;2023-06-04T00:25:36;17.00;99.90
18884;DHT22;9574;47.282;9.640;2023-06-04T00:28:03;16.90;99.90
18884;DHT22;9574;47.282;9.640;2023-06-04T00:30:30;16.90;99.90
18884;DHT22;9574;47.282;9.640;2023-06-04T00:32:58;17.10;99.90
18884;DHT22;9574;47.282;9.640;2023-06-04T00:35:25;17.10;99.90
18884;DHT22;9574;47.282;9.640;2023-06-04T00:37:52;17.00;99.90
18884;DHT22;9574;47.282;9.640;2023-06-04T00:40:19;16.90;99.90
18884;DHT22;9574;47.282;9.640;2023-06-04T00:42:47;17.10;99.90
18884;DHT22;9574;47.282;9.640;2023-06-04T00:45:15;17.10;99.90
18884;DHT22;9574;47.282;9.640;2023-06-04T00:47:44;17.00;99.90
18884;DHT22;9574;47.282;9.640;2023-06-04T00:50:11;16.80;99.90
18884;DHT22;9574;47.282;9.640;2023-06-04T00:52:38;16.70;99.90
18884;DHT22;9574;47.282;9.640;2023-06-04T00:55:06;16.70;99.90
18884;DHT22;9574;47.282;9.640;2023-06-04T00:57:33;16.70;99.90
18884;DHT22;9574;47.282;9.640;2023-06-04T01:00:02;16.90;99.90
18884;DHT22;9574;47.282;9.640;2023-06-04T01:02:31;16.90;99.90
18884;DHT22;9574;47.282;9.640;2023-06-04T01:05:06;17.00;99.90
18884;DHT22;9574;47.282;9.640;2023-06-04T01:07:35;16.80;99.90
18884;DHT22;9574;47.282;9.640;2023-06-04T01:10:03;16.70;99.90
18884;DHT22;9574;47.282;9.640;2023-06-04T01:12:30;16.70;99.90
18884;DHT22;9574;47.282;9.640;2023-06-04T01:14:57;16.70;99.90
18884;DHT22;9574;47.282;9.640;2023-06-04T01:17:29;16.50;99.90
18884;DHT22;9574;47.282;9.640;2023-06-04T01:20:19;16.40;99.90
18884;DHT22;9574;47.282;9.640;2023-06-04T01:25:36;16.30;99.90
18884;DHT22;9574;47.282;9.640;2023-06-04T01:28:05;16.40;99.90
18884;DHT22;9574;47.282;9.640;2023-06-04T01:30:35;16.30;99.90
18884;DHT22;9574;47.282;9.640;2023-06-04T01:33:10;16.40;99.90
18884;DHT22;9574;47.282;9.640;2023-06-04T01:35:37;16.30;99.90
18884;DHT22;9574;47.282;9.640;2023-06-04T01:38:04;16.30;99.90
18884;DHT22;9574;47.282;9.640;2023-06-04T01:40:31;16.30;99.90
18884;DHT22;9574;47.282;9.640;2023-06-04T01:42:59;16.30;99.90
18884;DHT22;9574;47.282;9.640;2023-06-04T01:45:27;16.50;99.90
18884;DHT22;9574;47.282;9.640;2023-06-04T01:47:54;16.40;99.90
18884;DHT22;9574;47.282;9.640;2023-06-04T01:50:23;16.70;99.90
18884;DHT22;9574;47.282;9.640;2023-06-04T01:52:50;17.10;99.90
18884;DHT22;9574;47.282;9.640;2023-06-04T01:55:18;16.80;99.90
18884;DHT22;9574;47.282;9.640;2023-06-04T01:57:46;16.80;99.90
18884;DHT22;9574;47.282;9.640;2023-06-04T02:00:14;16.60;99.90
18884;DHT22;9574;47.282;9.640;2023-06-04T02:02:42;16.60;99.90
18884;DHT22;9574;47.282;9.640;2023-06-04T02:05:09;16.60;99.90
18884;DHT22;9574;47.282;9.640;2023-06-04T02:07:40;16.50;99.90
18884;DHT22;9574;47.282;9.640;2023-06-04T02:10:08;16.30;99.90
18884;DHT22;9574;47.282;9.640;2023-06-04T02:12:37;16.40;99.90
18884;DHT22;9574;47.282;9.640;2023-06-04T02:15:06;16.40;99.90
18884;DHT22;9574;47.282;9.640;2023-06-04T02:17:33;16.40;99.90
18884;DHT22;9574;47.282;9.640;2023-06-04T02:20:03;16.30;99.90
18884;DHT22;9574;47.282;9.640;2023-06-04T02:22:31;16.20;99.90
18884;DHT22;9574;47.282;9.640;2023-06-04T02:24:59;16.30;99.90
18884;DHT22;9574;47.282;9.640;2023-06-04T02:27:26;16.30;99.90
18884;DHT22;9574;47.282;9.640;2023-06-04T02:29:53;16.20;99.90
18884;DHT22;9574;47.282;9.640;2023-06-04T02:32:20;16.10;99.90
18884;DHT22;9574;47.282;9.640;2023-06-04T02:34:47;16.00;99.90
18884;DHT22;9574;47.282;9.640;2023-06-04T02:37:14;16.10;99.90
18884;DHT22;9574;47.282;9.640;2023-06-04T02:39:41;16.10;99.90
18884;DHT22;9574;47.282;9.640;2023-06-04T02:42:10;16.10;99.90
18884;DHT22;9574;47.282;9.640;2023-06-04T02:44:37;15.90;99.90
18884;DHT22;9574;47.282;9.640;2023-06-04T02:47:05;15.80;99.90
18884;DHT22;9574;47.282;9.640;2023-06-04T02:49:32;15.60;99.90
18884;DHT22;9574;47.282;9.640;2023-06-04T02:52:02;15.60;99.90
18884;DHT22;9574;47.282;9.640;2023-06-04T02:54:30;15.60;99.90
18884;DHT22;9574;47.282;9.640;2023-06-04T02:56:57;15.70;99.90
18884;DHT22;9574;47.282;9.640;2023-06-04T02:59:25;15.80;99.90
18884;DHT22;9574;47.282;9.640;2023-06-04T03:01:52;15.80;99.90
18884;DHT22;9574;47.282;9.640;2023-06-04T03:04:19;15.70;99.90
18884;DHT22;9574;47.282;9.640;2023-06-04T03:06:46;15.60;99.90
18884;DHT22;9574;47.282;9.640;2023-06-04T03:09:13;15.60;99.90
18884;DHT22;9574;47.282;9.640;2023-06-04T03:11:40;15.50;99.90
18884;DHT22;9574;47.282;9.640;2023-06-04T03:14:07;15.40;99.90
18884;DHT22;9574;47.282;9.640;2023-06-04T03:16:36;15.40;99.90
18884;DHT22;9574;47.282;9.640;2023-06-04T03:19:05;15.40;99.90
18884;DHT22;9574;47.282;9.640;2023-06-04T03:21:32;15.40;99.90
18884;DHT22;9574;47.282;9.640;2023-06-04T03:23:59;15.40;99.90
18884;DHT22;9574;47.282;9.640;2023-06-04T03:26:26;15.40;99.90
18884;DHT22;9574;47.282;9.640;2023-06-04T03:28:53;15.40;99.90
18884;DHT22;9574;47.282;9.640;2023-06-04T03:31:20;15.30;99.90
18884;DHT22;9574;47.282;9.640;2023-06-04T03:33:48;15.30;99.90
18884;DHT22;9574;47.282;9.640;2023-06-04T03:36:15;15.60;99.90
18884;DHT22;9574;47.282;9.640;2023-06-04T03:38:45;15.60;99.90
18884;DHT22;9574;47.282;9.640;2023-06-04T03:41:12;15.60;99.90
18884;DHT22;9574;47.282;9.640;2023-06-04T03:43:39;15.70;99.90
18884;DHT22;9574;47.282;9.640;2023-06-04T03:46:06;15.70;99.90
18884;DHT22;9574;47.282;9.640;2023-06-04T03:48:33;15.60;99.90
18884;DHT22;9574;47.282;9.640;2023-06-04T03:51:02;15.60;99.90
18884;DHT22;9574;47.282;9.640;2023-06-04T03:53:29;15.60;99.90
18884;DHT22;9574;47.282;9.640;2023-06-04T03:55:56;15.60;99.90
18884;DHT22;9574;47.282;9.640;2023-06-04T03:58:23;15.60;99.90
18884;DHT22;9574;47.282;9.640;2023-06-04T04:00:50;15.50;99.90
18884;DHT22;9574;47.282;9.640;2023-06-04T04:03:17;15.50;99.90
18884;DHT22;9574;47.282;9.640;2023-06-04T04:05:45;15.40;99.90
18884;DHT22;9574;47.282;9.640;2023-06-04T04:08:13;15.50;99.90
18884;DHT22;9574;47.282;9.640;2023-06-04T04:10:41;15.50;99.90
18884;DHT22;9574;47.282;9.640;2023-06-04T04:13:08;15.60;99.90
18884;DHT22;9574;47.282;9.640;2023-06-04T04:15:35;15.80;99.90
18884;DHT22;9574;47.282;9.640;2023-06-04T04:18:02;15.90;99.90
18884;DHT22;9574;47.282;9.640;2023-06-04T04:20:29;15.80;99.90
18884;DHT22;9574;47.282;9.640;2023-06-04T04:22:56;15.80;99.90
18884;DHT22;9574;47.282;9.640;2023-06-04T04:25:25;15.70;99.90
18884;DHT22;9574;47.282;9.640;2023-06-04T04:27:52;15.70;99.90
18884;DHT22;9574;47.282;9.640;2023-06-04T04:30:22;15.70;99.90
18884;DHT22;9574;47.282;9.640;2023-06-04T04:32:49;15.80;99.90
18884;DHT22;9574;47.282;9.640;2023-06-04T04:35:16;15.80;99.90
18884;DHT22;9574;47.282;9.640;2023-06-04T04:37:43;15.70;99.90
18884;DHT22;9574;47.282;9.640;2023-06-04T04:40:12;15.70;99.90
18884;DHT22;9574;47.282;9.640;2023-06-04T04:42:41;15.70;99.90
18884;DHT22;9574;47.282;9.640;2023-06-04T04:45:09;15.80;99.90
18884;DHT22;9574;47.282;9.640;2023-06-04T04:47:36;15.80;99.90
18884;DHT22;9574;47.282;9.640;2023-06-04T04:50:04;15.90;99.90
18884;DHT22;9574;47.282;9.640;2023-06-04T04:52:31;16.00;99.90
18884;DHT22;9574;47.282;9.640;2023-06-04T04:54:58;16.10;99.90
18884;DHT22;9574;47.282;9.640;2023-06-04T04:57:25;16.10;99.90
18884;DHT22;9574;47.282;9.640;2023-06-04T04:59:53;16.10;99.90
18884;DHT22;9574;47.282;9.640;2023-06-04T05:02:20;16.20;99.90
18884;DHT22;9574;47.282;9.640;2023-06-04T05:04:47;16.40;99.90
18884;DHT22;9574;47.282;9.640;2023-06-04T05:07:14;16.60;99.90
18884;DHT22;9574;47.282;9.640;2023-06-04T05:09:41;16.70;99.90
18884;DHT22;9574;47.282;9.640;2023-06-04T05:12:08;16.70;99.90
18884;DHT22;9574;47.282;9.640;2023-06-04T05:14:35;16.70;99.90
18884;DHT22;9574;47.282;9.640;2023-06-04T05:17:04;16.90;99.90
18884;DHT22;9574;47.282;9.640;2023-06-04T05:19:32;17.10;99.90
18884;DHT22;9574;47.282;9.640;2023-06-04T05:21:59;17.00;99.90
18884;DHT22;9574;47.282;9.640;2023-06-04T05:24:26;17.10;99.90
18884;DHT22;9574;47.282;9.640;2023-06-04T05:26:54;17.50;99.90
18884;DHT22;9574;47.282;9.640;2023-06-04T05:29:22;17.80;99.90
18884;DHT22;9574;47.282;9.640;2023-06-04T05:31:49;17.90;99.90
18884;DHT22;9574;47.282;9.640;2023-06-04T05:34:17;17.80;99.90
18884;DHT22;9574;47.282;9.640;2023-06-04T05:36:45;18.10;99.90
18884;DHT22;9574;47.282;9.640;2023-06-04T05:39:12;18.30;99.90
18884;DHT22;9574;47.282;9.640;2023-06-04T05:41:39;18.50;99.90
18884;DHT22;9574;47.282;9.640;2023-06-04T05:44:08;18.40;99.90
18884;DHT22;9574;47.282;9.640;2023-06-04T05:46:35;18.50;99.90
18884;DHT22;9574;47.282;9.640;2023-06-04T05:49:02;18.60;99.90
18884;DHT22;9574;47.282;9.640;2023-06-04T05:51:30;18.60;99.90
18884;DHT22;9574;47.282;9.640;2023-06-04T05:53:57;18.70;99.90
18884;DHT22;9574;47.282;9.640;2023-06-04T05:56:24;18.50;99.90
18884;DHT22;9574;47.282;9.640;2023-06-04T05:58:52;18.50;99.90
18884;DHT22;9574;47.282;9.640;2023-06-04T06:01:19;18.70;99.90
18884;DHT22;9574;47.282;9.640;2023-06-04T06:03:47;18.80;99.90
18884;DHT22;9574;47.282;9.640;2023-06-04T06:06:14;18.80;99.90
18884;DHT22;9574;47.282;9.640;2023-06-04T06:08:42;18.90;99.90
18884;DHT22;9574;47.282;9.640;2023-06-04T06:11:09;18.90;99.90
18884;DHT22;9574;47.282;9.640;2023-06-04T06:13:37;19.10;99.90
18884;DHT22;9574;47.282;9.640;2023-06-04T06:16:04;19.30;99.90
18884;DHT22;9574;47.282;9.640;2023-06-04T06:18:31;19.30;99.90
18884;DHT22;9574;47.282;9.640;2023-06-04T06:20:58;19.40;99.90
18884;DHT22;9574;47.282;9.640;2023-06-04T06:23:25;19.40;99.90
18884;DHT22;9574;47.282;9.640;2023-06-04T06:25:53;19.50;99.90
18884;DHT22;9574;47.282;9.640;2023-06-04T06:28:21;19.60;99.90
18884;DHT22;9574;47.282;9.640;2023-06-04T06:30:48;19.70;99.90
18884;DHT22;9574;47.282;9.640;2023-06-04T06:33:15;19.70;99.90
18884;DHT22;9574;47.282;9.640;2023-06-04T06:35:42;19.80;99.90
18884;DHT22;9574;47.282;9.640;2023-06-04T06:38:11;19.80;99.90
18884;DHT22;9574;47.282;9.640;2023-06-04T06:40:39;19.90;99.90
18884;DHT22;9574;47.282;9.640;2023-06-04T06:43:08;20.00;99.90
18884;DHT22;9574;47.282;9.640;2023-06-04T06:45:35;20.00;99.90
18884;DHT22;9574;47.282;9.640;2023-06-04T06:48:02;20.00;99.90
18884;DHT22;9574;47.282;9.640;2023-06-04T06:50:29;20.00;99.90
18884;DHT22;9574;47.282;9.640;2023-06-04T06:52:56;20.10;99.90
18884;DHT22;9574;47.282;9.640;2023-06-04T06:55:23;20.20;99.90
18884;DHT22;9574;47.282;9.640;2023-06-04T06:57:50;20.20;99.90
18884;DHT22;9574;47.282;9.640;2023-06-04T07:00:19;20.00;99.90
18884;DHT22;9574;47.282;9.640;2023-06-04T07:02:46;19.90;99.90
18884;DHT22;9574;47.282;9.640;2023-06-04T07:05:14;19.80;99.90
18884;DHT22;9574;47.282;9.640;2023-06-04T07:07:42;19.90;99.90
18884;DHT22;9574;47.282;9.640;2023-06-04T07:10:10;19.90;99.90
18884;DHT22;9574;47.282;9.640;2023-06-04T07:12:37;20.10;99.90
18884;DHT22;9574;47.282;9.640;2023-06-04T07:15:06;20.30;99.90
18884;DHT22;9574;47.282;9.640;2023-06-04T07:17:35;20.60;99.90
18884;DHT22;9574;47.282;9.640;2023-06-04T07:20:02;20.80;99.90
18884;DHT22;9574;47.282;9.640;2023-06-04T07:22:32;20.90;99.90
18884;DHT22;9574;47.282;9.640;2023-06-04T07:24:59;21.00;99.90
18884;DHT22;9574;47.282;9.640;2023-06-04T07:27:26;21.10;99.90
18884;DHT22;9574;47.282;9.640;2023-06-04T07:29:53;21.30;99.90
18884;DHT22;9574;47.282;9.640;2023-06-04T07:32:20;21.20;99.90
18884;DHT22;9574;47.282;9.640;2023-06-04T07:34:49;21.30;99.90
18884;DHT22;9574;47.282;9.640;2023-06-04T07:37:16;21.40;99.90
18884;DHT22;9574;47.282;9.640;2023-06-04T07:39:43;21.40;99.90
18884;DHT22;9574;47.282;9.640;2023-06-04T07:42:10;21.50;99.90
18884;DHT22;9574;47.282;9.640;2023-06-04T07:44:37;21.60;99.90
18884;DHT22;9574;47.282;9.640;2023-06-04T07:47:04;21.50;99.90
18884;DHT22;9574;47.282;9.640;2023-06-04T07:49:31;21.60;99.90
18884;DHT22;9574;47.282;9.640;2023-06-04T07:52:00;21.70;99.90
18884;DHT22;9574;47.282;9.640;2023-06-04T07:54:27;21.90;99.90
18884;DHT22;9574;47.282;9.640;2023-06-04T07:56:54;22.00;99.90
18884;DHT22;9574;47.282;9.640;2023-06-04T07:59:21;22.00;99.90
18884;DHT22;9574;47.282;9.640;2023-06-04T08:01:50;22.10;99.90
18884;DHT22;9574;47.282;9.640;2023-06-04T08:04:17;22.30;99.90
18884;DHT22;9574;47.282;9.640;2023-06-04T08:06:44;22.40;99.90
18884;DHT22;9574;47.282;9.640;2023-06-04T08:09:13;22.30;99.90
18884;DHT22;9574;47.282;9.640;2023-06-04T08:11:42;22.30;99.90
18884;DHT22;9574;47.282;9.640;2023-06-04T08:14:10;22.20;99.90
18884;DHT22;9574;47.282;9.640;2023-06-04T08:16:38;22.30;99.90
18884;DHT22;9574;47.282;9.640;2023-06-04T08:19:05;22.60;99.90
18884;DHT22;9574;47.282;9.640;2023-06-04T08:21:33;22.70;99.90
18884;DHT22;9574;47.282;9.640;2023-06-04T08:24:01;22.70;99.90
18884;DHT22;9574;47.282;9.640;2023-06-04T08:26:30;22.60;99.90
18884;DHT22;9574;47.282;9.640;2023-06-04T08:28:58;22.70;99.90
18884;DHT22;9574;47.282;9.640;2023-06-04T08:31:25;22.90;99.90
18884;DHT22;9574;47.282;9.640;2023-06-04T08:33:52;22.80;99.90
18884;DHT22;9574;47.282;9.640;2023-06-04T08:36:19;23.00;99.90
18884;DHT22;9574;47.282;9.640;2023-06-04T08:38:45;22.90;99.90
18884;DHT22;9574;47.282;9.640;2023-06-04T08:41:20;22.80;99.90
18884;DHT22;9574;47.282;9.640;2023-06-04T08:43:51;22.70;99.90
18884;DHT22;9574;47.282;9.640;2023-06-04T08:46:20;22.40;99.90
18884;DHT22;9574;47.282;9.640;2023-06-04T08:48:48;22.40;99.90
18884;DHT22;9574;47.282;9.640;2023-06-04T08:51:16;22.40;99.90
18884;DHT22;9574;47.282;9.640;2023-06-04T08:53:43;22.50;99.90
18884;DHT22;9574;47.282;9.640;2023-06-04T08:56:13;22.60;99.90
18884;DHT22;9574;47.282;9.640;2023-06-04T08:58:40;22.70;99.90
18884;DHT22;9574;47.282;9.640;2023-06-04T09:01:10;22.60;99.90
18884;DHT22;9574;47.282;9.640;2023-06-04T09:03:37;22.60;99.90
18884;DHT22;9574;47.282;9.640;2023-06-04T09:06:04;22.60;99.90
18884;DHT22;9574;47.282;9.640;2023-06-04T09:08:33;22.70;99.90
18884;DHT22;9574;47.282;9.640;2023-06-04T09:11:05;22.90;99.90
18884;DHT22;9574;47.282;9.640;2023-06-04T09:13:35;23.10;99.90
18884;DHT22;9574;47.282;9.640;2023-06-04T09:16:03;23.10;99.90
18884;DHT22;9574;47.282;9.640;2023-06-04T09:18:33;23.20;99.90
18884;DHT22;9574;47.282;9.640;2023-06-04T09:21:03;23.30;99.90
18884;DHT22;9574;47.282;9.640;2023-06-04T09:23:31;23.30;99.90
18884;DHT22;9574;47.282;9.640;2023-06-04T09:26:06;23.10;99.90
18884;DHT22;9574;47.282;9.640;2023-06-04T09:28:34;23.20;99.90
18884;DHT22;9574;47.282;9.640;2023-06-04T09:31:04;23.30;99.90
18884;DHT22;9574;47.282;9.640;2023-06-04T09:33:42;23.30;99.90
18884;DHT22;9574;47.282;9.640;2023-06-04T09:36:09;23.40;99.90
18884;DHT22;9574;47.282;9.640;2023-06-04T09:38:36;23.40;99.90
18884;DHT22;9574;47.282;9.640;2023-06-04T09:41:03;23.60;99.90
18884;DHT22;9574;47.282;9.640;2023-06-04T09:43:31;23.70;99.90
18884;DHT22;9574;47.282;9.640;2023-06-04T09:46:09;23.80;99.90
18884;DHT22;9574;47.282;9.640;2023-06-04T09:48:38;23.90;99.90
18884;DHT22;9574;47.282;9.640;2023-06-04T09:51:07;24.20;99.90
18884;DHT22;9574;47.282;9.640;2023-06-04T09:53:34;24.40;99.90
18884;DHT22;9574;47.282;9.640;2023-06-04T09:56:03;24.60;99.90
18884;DHT22;9574;47.282;9.640;2023-06-04T09:58:32;24.50;99.90
18884;DHT22;9574;47.282;9.640;2023-06-04T10:01:00;24.40;99.90
18884;DHT22;9574;47.282;9.640;2023-06-04T10:03:30;24.40;99.90
18884;DHT22;9574;47.282;9.640;2023-06-04T10:06:01;24.20;99.90
18884;DHT22;9574;47.282;9.640;2023-06-04T10:08:30;24.10;99.90
18884;DHT22;9574;47.282;9.640;2023-06-04T10:10:59;24.20;99.90
18884;DHT22;9574;47.282;9.640;2023-06-04T10:13:27;24.00;99.90
18884;DHT22;9574;47.282;9.640;2023-06-04T10:15:57;24.10;99.90
18884;DHT22;9574;47.282;9.640;2023-06-04T10:18:27;24.10;99.90
18884;DHT22;9574;47.282;9.640;2023-06-04T10:20:55;24.10;99.90
18884;DHT22;9574;47.282;9.640;2023-06-04T10:23:24;24.10;99.90
18884;DHT22;9574;47.282;9.640;2023-06-04T10:25:51;24.00;99.90
18884;DHT22;9574;47.282;9.640;2023-06-04T10:28:20;24.00;99.90
18884;DHT22;9574;47.282;9.640;2023-06-04T10:30:47;24.10;99.90
18884;DHT22;9574;47.282;9.640;2023-06-04T10:33:17;24.10;99.90
18884;DHT22;9574;47.282;9.640;2023-06-04T10:35:46;24.10;99.90
18884;DHT22;9574;47.282;9.640;2023-06-04T10:38:14;24.10;99.90
18884;DHT22;9574;47.282;9.640;2023-06-04T10:40:43;24.00;99.90
18884;DHT22;9574;47.282;9.640;2023-06-04T10:43:12;24.00;99.90
18884;DHT22;9574;47.282;9.640;2023-06-04T10:45:41;24.10;99.90
18884;DHT22;9574;47.282;9.640;2023-06-04T10:48:10;24.10;99.90
18884;DHT22;9574;47.282;9.640;2023-06-04T10:50:48;24.00;99.90
18884;DHT22;9574;47.282;9.640;2023-06-04T10:53:17;24.10;99.90
18884;DHT22;9574;47.282;9.640;2023-06-04T10:55:47;24.20;99.90
18884;DHT22;9574;47.282;9.640;2023-06-04T10:58:14;24.20;99.90
18884;DHT22;9574;47.282;9.640;2023-06-04T11:00:42;24.20;99.90
18884;DHT22;9574;47.282;9.640;2023-06-04T11:03:12;24.20;99.90
18884;DHT22;9574;47.282;9.640;2023-06-04T11:05:40;24.20;99.90
18884;DHT22;9574;47.282;9.640;2023-06-04T11:08:08;24.20;99.90
18884;DHT22;9574;47.282;9.640;2023-06-04T11:10:36;24.30;99.90
18884;DHT22;9574;47.282;9.640;2023-06-04T11:13:05;24.40;99.90
18884;DHT22;9574;47.282;9.640;2023-06-04T11:15:40;24.50;99.90
18884;DHT22;9574;47.282;9.640;2023-06-04T11:18:07;24.40;99.90
18884;DHT22;9574;47.282;9.640;2023-06-04T11:20:34;24.50;99.90
18884;DHT22;9574;47.282;9.640;2023-06-04T11:23:01;24.50;99.90
18884;DHT22;9574;47.282;9.640;2023-06-04T11:25:30;24.40;99.90
18884;DHT22;9574;47.282;9.640;2023-06-04T11:27:58;24.30;99.90
18884;DHT22;9574;47.282;9.640;2023-06-04T11:30:28;24.20;99.90
18884;DHT22;9574;47.282;9.640;2023-06-04T11:33:02;24.20;99.90
18884;DHT22;9574;47.282;9.640;2023-06-04T11:35:30;24.20;99.90
18884;DHT22;9574;47.282;9.640;2023-06-04T11:37:58;24.20;99.90
18884;DHT22;9574;47.282;9.640;2023-06-04T11:40:25;24.10;99.90
18884;DHT22;9574;47.282;9.640;2023-06-04T11:42:53;24.10;99.90
18884;DHT22;9574;47.282;9.640;2023-06-04T11:45:21;24.00;99.90
18884;DHT22;9574;47.282;9.640;2023-06-04T11:47:52;24.00;99.90
18884;DHT22;9574;47.282;9.640;2023-06-04T11:50:19;24.10;99.90
18884;DHT22;9574;47.282;9.640;2023-06-04T11:52:47;24.10;99.90
18884;DHT22;9574;47.282;9.640;2023-06-04T11:55:15;24.20;99.90
18884;DHT22;9574;47.282;9.640;2023-06-04T11:57:48;24.20;99.90
18884;DHT22;9574;47.282;9.640;2023-06-04T12:00:17;24.30;99.90
18884;DHT22;9574;47.282;9.640;2023-06-04T12:02:51;24.30;99.90
18884;DHT22;9574;47.282;9.640;2023-06-04T12:05:19;24.50;99.90
18884;DHT22;9574;47.282;9.640;2023-06-04T12:07:49;24.50;99.90
18884;DHT22;9574;47.282;9.640;2023-06-04T12:10:17;24.60;99.90
18884;DHT22;9574;47.282;9.640;2023-06-04T12:12:44;24.60;99.90
18884;DHT22;9574;47.282;9.640;2023-06-04T12:15:11;24.70;99.90
18884;DHT22;9574;47.282;9.640;2023-06-04T12:17:50;24.80;99.90
18884;DHT22;9574;47.282;9.640;2023-06-04T12:20:18;25.00;99.90
18884;DHT22;9574;47.282;9.640;2023-06-04T12:22:45;25.10;99.90
18884;DHT22;9574;47.282;9.640;2023-06-04T12:25:23;25.20;99.90
18884;DHT22;9574;47.282;9.640;2023-06-04T12:27:50;25.30;99.90
18884;DHT22;9574;47.282;9.640;2023-06-04T12:30:17;25.40;99.90
18884;DHT22;9574;47.282;9.640;2023-06-04T12:32:44;25.60;99.90
18884;DHT22;9574;47.282;9.640;2023-06-04T12:35:13;25.70;99.90
18884;DHT22;9574;47.282;9.640;2023-06-04T12:37:41;25.70;99.90
18884;DHT22;9574;47.282;9.640;2023-06-04T12:40:09;25.60;99.90
18884;DHT22;9574;47.282;9.640;2023-06-04T12:42:36;25.50;99.90
18884;DHT22;9574;47.282;9.640;2023-06-04T12:45:04;25.60;99.90
18884;DHT22;9574;47.282;9.640;2023-06-04T12:47:31;25.60;99.90
18884;DHT22;9574;47.282;9.640;2023-06-04T12:49:58;25.50;99.90
18884;DHT22;9574;47.282;9.640;2023-06-04T12:52:27;25.40;99.90
18884;DHT22;9574;47.282;9.640;2023-06-04T12:54:54;25.20;99.90
18884;DHT22;9574;47.282;9.640;2023-06-04T12:57:21;25.00;99.90
18884;DHT22;9574;47.282;9.640;2023-06-04T12:59:48;24.80;99.90
18884;DHT22;9574;47.282;9.640;2023-06-04T13:02:15;24.60;99.90
18884;DHT22;9574;47.282;9.640;2023-06-04T13:04:42;24.60;99.90
18884;DHT22;9574;47.282;9.640;2023-06-04T13:07:10;24.50;99.90
18884;DHT22;9574;47.282;9.640;2023-06-04T13:09:38;24.40;99.90
18884;DHT22;9574;47.282;9.640;2023-06-04T13:12:05;24.30;99.90
18884;DHT22;9574;47.282;9.640;2023-06-04T13:14:35;24.10;99.90
18884;DHT22;9574;47.282;9.640;2023-06-04T13:17:02;23.40;99.90
18884;DHT22;9574;47.282;9.640;2023-06-04T13:19:29;22.80;99.90
18884;DHT22;9574;47.282;9.640;2023-06-04T13:21:55;22.30;99.90
18884;DHT22;9574;47.282;9.640;2023-06-04T13:24:23;21.90;99.90
18884;DHT22;9574;47.282;9.640;2023-06-04T13:26:52;21.70;99.90
18884;DHT22;9574;47.282;9.640;2023-06-04T13:29:20;21.60;99.90
18884;DHT22;9574;47.282;9.640;2023-06-04T13:31:48;21.50;99.90
18884;DHT22;9574;47.282;9.640;2023-06-04T13:34:15;21.50;99.90
18884;DHT22;9574;47.282;9.640;2023-06-04T13:36:42;21.50;99.90
18884;DHT22;9574;47.282;9.640;2023-06-04T13:39:09;21.40;99.90
18884;DHT22;9574;47.282;9.640;2023-06-04T13:41:36;21.40;99.90
18884;DHT22;9574;47.282;9.640;2023-06-04T13:44:05;21.30;99.90
18884;DHT22;9574;47.282;9.640;2023-06-04T13:46:32;21.00;99.90
18884;DHT22;9574;47.282;9.640;2023-06-04T13:48:59;20.70;99.90
18884;DHT22;9574;47.282;9.640;2023-06-04T13:51:26;20.60;99.90
18884;DHT22;9574;47.282;9.640;2023-06-04T13:53:55;20.50;99.90
18884;DHT22;9574;47.282;9.640;2023-06-04T13:56:22;20.60;99.90
18884;DHT22;9574;47.282;9.640;2023-06-04T13:58:49;20.60;99.90
18884;DHT22;9574;47.282;9.640;2023-06-04T14:01:18;20.60;99.90
18884;DHT22;9574;47.282;9.640;2023-06-04T14:03:45;20.60;99.90
18884;DHT22;9574;47.282;9.640;2023-06-04T14:06:12;20.80;99.90
18884;DHT22;9574;47.282;9.640;2023-06-04T14:08:39;20.60;99.90
18884;DHT22;9574;47.282;9.640;2023-06-04T14:11:06;20.40;99.90
18884;DHT22;9574;47.282;9.640;2023-06-04T14:13:33;20.30;99.90
18884;DHT22;9574;47.282;9.640;2023-06-04T14:16:00;20.20;99.90
18884;DHT22;9574;47.282;9.640;2023-06-04T14:18:28;20.10;99.90
18884;DHT22;9574;47.282;9.640;2023-06-04T14:20:55;20.00;99.90
18884;DHT22;9574;47.282;9.640;2023-06-04T14:23:22;20.20;99.90
18884;DHT22;9574;47.282;9.640;2023-06-04T14:25:49;20.40;99.90
18884;DHT22;9574;47.282;9.640;2023-06-04T14:28:16;20.70;99.90
18884;DHT22;9574;47.282;9.640;2023-06-04T14:30:43;20.50;99.90
18884;DHT22;9574;47.282;9.640;2023-06-04T14:33:10;20.30;99.90
18884;DHT22;9574;47.282;9.640;2023-06-04T14:35:39;20.40;99.90
18884;DHT22;9574;47.282;9.640;2023-06-04T14:38:11;20.30;99.90
18884;DHT22;9574;47.282;9.640;2023-06-04T14:40:38;20.40;99.90
18884;DHT22;9574;47.282;9.640;2023-06-04T14:43:05;20.60;99.90
18884;DHT22;9574;47.282;9.640;2023-06-04T14:45:31;20.70;99.90
18884;DHT22;9574;47.282;9.640;2023-06-04T14:47:58;20.90;99.90
18884;DHT22;9574;47.282;9.640;2023-06-04T14:50:26;21.00;99.90
18884;DHT22;9574;47.282;9.640;2023-06-04T14:52:54;21.00;99.90
18884;DHT22;9574;47.282;9.640;2023-06-04T14:55:21;20.90;99.90
18884;DHT22;9574;47.282;9.640;2023-06-04T14:57:49;21.10;99.90
18884;DHT22;9574;47.282;9.640;2023-06-04T15:00:17;21.10;99.90
18884;DHT22;9574;47.282;9.640;2023-06-04T15:02:43;20.90;99.90
18884;DHT22;9574;47.282;9.640;2023-06-04T15:05:11;20.80;99.90
18884;DHT22;9574;47.282;9.640;2023-06-04T15:07:38;20.80;99.90
18884;DHT22;9574;47.282;9.640;2023-06-04T15:10:08;20.90;99.90
18884;DHT22;9574;47.282;9.640;2023-06-04T15:12:35;20.90;99.90
18884;DHT22;9574;47.282;9.640;2023-06-04T15:15:05;21.00;99.90
18884;DHT22;9574;47.282;9.640;2023-06-04T15:17:32;21.10;99.90
18884;DHT22;9574;47.282;9.640;2023-06-04T15:19:59;21.20;99.90
18884;DHT22;9574;47.282;9.640;2023-06-04T15:22:25;21.00;99.90
18884;DHT22;9574;47.282;9.640;2023-06-04T15:24:53;21.00;99.90
18884;DHT22;9574;47.282;9.640;2023-06-04T15:27:21;20.80;99.90
18884;DHT22;9574;47.282;9.640;2023-06-04T15:29:48;20.70;99.90
18884;DHT22;9574;47.282;9.640;2023-06-04T15:32:15;20.70;99.90
18884;DHT22;9574;47.282;9.640;2023-06-04T15:34:42;20.60;99.90
18884;DHT22;9574;47.282;9.640;2023-06-04T15:37:09;20.50;99.90
18884;DHT22;9574;47.282;9.640;2023-06-04T15:39:36;20.50;99.90
18884;DHT22;9574;47.282;9.640;2023-06-04T15:42:04;20.50;99.90
18884;DHT22;9574;47.282;9.640;2023-06-04T15:44:32;20.40;99.90
18884;DHT22;9574;47.282;9.640;2023-06-04T15:46:59;20.40;99.90
18884;DHT22;9574;47.282;9.640;2023-06-04T15:49:27;20.30;99.90
18884;DHT22;9574;47.282;9.640;2023-06-04T15:51:54;20.30;99.90